This is the latest recevied weather packets stored in our database for station/object KB8TTR. If no packets are shown the sender has not sent any weather packets the latest 10 day(s).
| Time | Temp. | Humidity | Pressure | Rain* | Wind** | Luminosity | Snow |
|---|---|---|---|---|---|---|---|
| 1788388822 | 32.78° C | 59% | 1014.5 hPa | 0 mm | - | 62 W/m² | - |
| 1788388518 | 32.78° C | 58% | 1014.6 hPa | 0 mm | - | 65 W/m² | - |
| 1788388217 | 32.78° C | 59% | 1014.4 hPa | 0 mm | - | 73 W/m² | - |
| 1788387916 | 32.78° C | 58% | 1014.5 hPa | 0 mm | - | 80 W/m² | - |
| 1788387615 | 32.78° C | 59% | 1014.7 hPa | 0 mm | - | 85 W/m² | - |
| 1788387315 | 32.78° C | 58% | 1014.6 hPa | 0 mm | - | 89 W/m² | - |
| 1788387010 | 33.33° C | 57% | 1014.6 hPa | 0 mm | - | 82 W/m² | - |
| 1788386705 | 33.33° C | 57% | 1014.7 hPa | 0 mm | - | 93 W/m² | - |
| 1788386399 | 33.33° C | 56% | 1014.5 hPa | 0 mm | - | 95 W/m² | - |
| 1788386096 | 33.33° C | 56% | 1014.7 hPa | 0 mm | - | 83 W/m² | - |
| 1788385791 | 33.33° C | 55% | 1014.6 hPa | 0 mm | - | 81 W/m² | - |
| 1788385490 | 33.33° C | 57% | 1014.7 hPa | 0 mm | - | 70 W/m² | - |
| 1788385184 | 33.89° C | 56% | 1014.8 hPa | 0 mm | - | 74 W/m² | - |
| 1788384881 | 33.89° C | 56% | 1014.9 hPa | 0 mm | - | 81 W/m² | - |
| 1788384579 | 33.89° C | 55% | 1014.9 hPa | 0 mm | - | 83 W/m² | - |
| 1788384276 | 33.89° C | 54% | 1014.8 hPa | 0 mm | - | 88 W/m² | - |
| 1788383972 | 33.89° C | 54% | 1014.9 hPa | 0 mm | - | 89 W/m² | - |
| 1788383667 | 33.89° C | 54% | 1014.9 hPa | 0 mm | - | 85 W/m² | - |
| 1788383362 | 33.89° C | 54% | 1014.8 hPa | 0 mm | - | 90 W/m² | - |
| 1788383062 | 33.89° C | 55% | 1015.1 hPa | 0 mm | - | 178 W/m² | - |
| 1788382760 | 33.89° C | 55% | 1015 hPa | 0 mm | - | 147 W/m² | - |
| 1788382455 | 33.89° C | 55% | 1014.9 hPa | 0 mm | - | 98 W/m² | - |
| 1788382151 | 33.89° C | 54% | 1014.9 hPa | 0 mm | - | 116 W/m² | - |
| 1788381851 | 34.44° C | 54% | 1015 hPa | 0 mm | - | 186 W/m² | - |
| 1788381547 | 34.44° C | 54% | 1015.3 hPa | 0 mm | - | 521 W/m² | - |
* Rain latest hour (hover to see other rain measurements)
** Current wind speed in m/s (hover to see current wind gust speed)